Time;durP1;ratioP1;P1;durP2;ratioP2;P2;SDS_P1;SDS_P2;PMS_P1;PMS_P2;Temp;Humidity;BMP_temperature;BMP_pressure;BME280_temperature;BME280_humidity;BME280_pressure;Samples;Min_cycle;Max_cycle;Signal;HPM_P1;HPM_P2
2021/07/07 00:00:48;;;;;;;7.58;5.72;;;;;;;24.75;64.23;99389.69;1745182;80;21038;-45
2021/07/07 00:03:14;;;;;;;6.80;6.00;;;;;;;24.74;64.18;99398.48;1746216;80;21478;-45
2021/07/07 00:05:41;;;;;;;6.58;5.90;;;;;;;24.71;64.24;99396.59;1747946;80;21033;-45
2021/07/07 00:08:08;;;;;;;6.70;5.90;;;;;;;24.67;64.22;99400.29;1703046;82;21075;-45
2021/07/07 00:10:36;;;;;;;8.63;6.05;;;;;;;24.63;64.44;99403.04;1773263;80;21943;-45
2021/07/07 00:13:03;;;;;;;8.08;5.60;;;;;;;24.58;64.44;99399.47;1691723;82;21579;-45
2021/07/07 00:15:32;;;;;;;8.63;6.20;;;;;;;24.58;64.53;99393.92;1744357;80;21021;-45
2021/07/07 00:18:02;;;;;;;7.00;6.20;;;;;;;24.56;64.56;99401.30;1751338;80;21060;-45
2021/07/07 00:20:44;;;;;;;7.35;6.33;;;;;;;24.52;64.63;99404.05;1743752;80;21046;-45
2021/07/07 00:23:08;;;;;;;8.53;6.25;;;;;;;24.50;64.81;99403.70;1744509;80;21103;-45
2021/07/07 00:25:35;;;;;;;7.30;6.58;;;;;;;24.47;64.88;99406.01;1763280;80;21013;-45
2021/07/07 00:28:03;;;;;;;7.00;6.30;;;;;;;24.44;64.96;99402.77;1758558;80;21337;-45
2021/07/07 00:30:30;;;;;;;7.95;6.10;;;;;;;24.43;64.95;99402.60;1737248;82;21045;-45
2021/07/07 00:32:58;;;;;;;11.60;7.42;;;;;;;24.44;64.93;99404.16;1755980;80;21078;-45
2021/07/07 00:35:25;;;;;;;11.93;6.80;;;;;;;24.43;64.94;99401.99;1761218;80;21091;-44
2021/07/07 00:37:51;;;;;;;7.15;6.45;;;;;;;24.42;64.91;99408.75;1709084;82;21050;-45
2021/07/07 00:40:19;;;;;;;10.53;6.45;;;;;;;24.41;64.93;99400.88;1722089;80;21012;-45
2021/07/07 00:42:46;;;;;;;9.95;7.03;;;;;;;24.41;64.90;99406.42;1748326;80;21493;-45
2021/07/07 00:45:14;;;;;;;7.45;6.65;;;;;;;24.41;64.79;99403.05;1759699;81;21009;-45
2021/07/07 00:47:41;;;;;;;8.05;7.22;;;;;;;24.42;64.70;99402.44;1748345;80;21101;-45
2021/07/07 00:50:08;;;;;;;7.55;6.83;;;;;;;24.39;64.67;99399.97;1726720;80;20965;-45
2021/07/07 00:52:35;;;;;;;7.85;7.08;;;;;;;24.36;64.74;99405.01;1739572;80;20974;-45
2021/07/07 00:55:11;;;;;;;8.50;7.17;;;;;;;24.34;64.81;99403.32;1743441;80;21065;-45
2021/07/07 00:57:38;;;;;;;8.18;6.45;;;;;;;24.34;64.80;99418.56;1740530;80;20996;-45
2021/07/07 01:00:07;;;;;;;8.18;7.37;;;;;;;24.35;64.80;99417.31;1747151;80;21075;-45
2021/07/07 01:02:37;;;;;;;8.78;7.28;;;;;;;24.36;64.80;99415.31;1747050;80;20990;-45
2021/07/07 01:05:09;;;;;;;9.23;7.85;;;;;;;24.34;64.83;99421.33;1748042;82;21060;-45
2021/07/07 01:07:36;;;;;;;9.70;7.92;;;;;;;24.33;64.91;99421.77;1734526;80;21623;-45
2021/07/07 01:10:04;;;;;;;10.45;6.97;;;;;;;24.28;64.94;99421.73;1726348;80;21029;-45
2021/07/07 01:12:32;;;;;;;7.92;6.97;;;;;;;24.07;64.92;99391.38;1741021;80;21137;-45
2021/07/07 01:15:07;;;;;;;8.48;7.17;;;;;;;24.30;64.96;99422.08;1740697;81;21033;-45
2021/07/07 01:17:34;;;;;;;11.48;7.30;;;;;;;24.32;65.06;99423.77;1744171;80;21881;-45
2021/07/07 01:20:07;;;;;;;10.10;7.45;;;;;;;24.31;65.21;99424.98;1725946;82;21017;-45
2021/07/07 01:22:34;;;;;;;10.60;7.87;;;;;;;24.31;65.44;99424.98;1724664;80;21637;-45
2021/07/07 01:25:01;;;;;;;8.28;7.40;;;;;;;24.27;65.42;99426.34;1725883;81;21586;-45
2021/07/07 01:27:28;;;;;;;9.00;7.20;;;;;;;24.22;64.95;99431.84;1736907;80;21044;-45
2021/07/07 01:29:54;;;;;;;8.95;6.20;;;;;;;24.20;64.94;99428.77;1733365;80;21443;-45
2021/07/07 01:32:21;;;;;;;7.87;7.03;;;;;;;24.20;64.81;99424.61;1748563;80;21041;-45
2021/07/07 01:34:50;;;;;;;7.58;6.75;;;;;;;24.17;64.89;99428.27;1736897;80;21084;-45
2021/07/07 01:37:18;;;;;;;9.18;7.05;;;;;;;24.14;64.94;99429.14;1741528;80;21836;-45
2021/07/07 01:39:44;;;;;;;10.03;7.35;;;;;;;24.09;64.98;99431.10;1735562;80;21537;-45
2021/07/07 01:42:10;;;;;;;7.83;6.15;;;;;;;24.04;65.08;99431.67;1729198;80;21542;-45
2021/07/07 01:44:37;;;;;;;9.93;6.72;;;;;;;24.00;65.24;99433.80;1759929;80;21502;-45
2021/07/07 01:47:06;;;;;;;7.67;6.78;;;;;;;23.99;65.45;99439.17;1752151;80;21058;-45
2021/07/07 01:49:32;;;;;;;8.80;7.05;;;;;;;24.00;65.60;99441.50;1769018;80;21866;-45
2021/07/07 01:51:59;;;;;;;9.18;6.92;;;;;;;23.96;65.62;99438.69;1777737;80;21027;-45
2021/07/07 01:54:26;;;;;;;10.65;7.17;;;;;;;23.89;65.80;99435.55;1760355;80;21092;-45
2021/07/07 01:56:52;;;;;;;8.38;6.35;;;;;;;23.86;65.83;99437.83;1760662;80;21947;-45
2021/07/07 01:59:19;;;;;;;8.03;7.05;;;;;;;23.84;65.89;99447.19;1756945;79;21538;-45
2021/07/07 02:01:45;;;;;;;8.98;7.00;;;;;;;23.85;66.01;99443.81;1747000;80;21129;-45
2021/07/07 02:04:12;;;;;;;8.30;7.08;;;;;;;23.87;66.04;99441.38;1750400;80;20926;-45
2021/07/07 02:06:38;;;;;;;9.10;7.00;;;;;;;23.88;66.15;99445.67;1773383;80;21531;-45
2021/07/07 02:09:05;;;;;;;7.90;7.10;;;;;;;23.87;66.11;99449.05;1759519;80;21349;-45
2021/07/07 02:11:34;;;;;;;7.65;6.62;;;;;;;23.87;66.13;99446.92;1765329;80;21052;-45
2021/07/07 02:14:03;;;;;;;8.95;6.37;;;;;;;23.88;66.15;99445.67;1761341;80;21098;-45
2021/07/07 02:16:29;;;;;;;8.23;6.40;;;;;;;23.92;66.12;99452.63;1757833;80;21087;-43
2021/07/07 02:18:56;;;;;;;8.23;6.97;;;;;;;23.96;66.23;99451.15;1735312;82;21065;-43
2021/07/07 02:21:22;;;;;;;9.40;7.22;;;;;;;23.99;66.49;99451.63;1723076;82;21583;-43
2021/07/07 02:23:49;;;;;;;10.82;7.85;;;;;;;24.02;66.40;99454.88;1693356;83;21100;-43
2021/07/07 02:26:17;;;;;;;8.45;6.83;;;;;;;24.04;66.29;99456.60;1716074;82;21041;-43
2021/07/07 02:28:45;;;;;;;8.38;6.95;;;;;;;24.07;66.14;99455.70;1710042;83;21080;-43
2021/07/07 02:31:12;;;;;;;7.70;6.90;;;;;;;24.13;65.95;99459.45;1697687;83;20963;-43
2021/07/07 02:33:38;;;;;;;8.95;7.05;;;;;;;24.18;65.70;99458.30;1690930;83;21049;-43
2021/07/07 02:36:05;;;;;;;8.50;7.60;;;;;;;24.21;65.71;99455.23;1680773;83;21084;-43
2021/07/07 02:38:32;;;;;;;9.63;7.53;;;;;;;24.23;65.60;99459.72;1723166;83;21044;-43
2021/07/07 02:40:59;;;;;;;7.75;6.78;;;;;;;24.26;65.56;99462.97;1684075;84;21025;-43
2021/07/07 02:43:26;;;;;;;8.08;6.70;;;;;;;24.29;65.44;99463.47;1676345;84;21491;-43
2021/07/07 02:45:53;;;;;;;12.10;6.87;;;;;;;24.33;65.33;99462.73;1676802;84;21071;-43
2021/07/07 02:48:19;;;;;;;10.82;7.50;;;;;;;24.39;65.21;99474.02;1670031;84;21037;-43
2021/07/07 02:50:48;;;;;;;10.30;7.30;;;;;;;24.41;65.15;99472.94;1730119;82;21505;-43
2021/07/07 02:53:16;;;;;;;8.00;7.20;;;;;;;24.44;64.95;99474.22;1730390;80;21016;-43
2021/07/07 02:55:43;;;;;;;9.58;7.53;;;;;;;24.47;64.84;99471.92;1723198;82;21104;-43
2021/07/07 02:58:10;;;;;;;8.20;7.12;;;;;;;24.47;64.81;99476.08;1733650;81;21665;-43
2021/07/07 03:00:45;;;;;;;7.30;6.60;;;;;;;24.46;64.82;99481.45;1738870;81;21021;-43
2021/07/07 03:03:15;;;;;;;7.85;7.05;;;;;;;24.50;64.70;99479.92;1735904;81;21862;-43
2021/07/07 03:05:49;;;;;;;9.98;7.67;;;;;;;24.54;64.57;99489.69;1722131;81;21008;-43
2021/07/07 03:08:16;;;;;;;9.00;7.47;;;;;;;24.54;64.47;99486.14;1727395;81;21124;-43
2021/07/07 03:10:44;;;;;;;7.95;7.22;;;;;;;24.51;64.57;99490.58;1721243;81;21087;-43
2021/07/07 03:13:11;;;;;;;9.33;6.90;;;;;;;24.50;64.64;99493.17;1741735;82;21539;-43
2021/07/07 03:15:38;;;;;;;8.70;6.85;;;;;;;24.53;64.61;99492.30;1746222;82;21205;-43
2021/07/07 03:18:06;;;;;;;9.40;7.17;;;;;;;24.56;64.61;99496.92;1730647;81;21526;-43
2021/07/07 03:20:33;;;;;;;8.93;7.30;;;;;;;24.62;64.39;99497.13;1734197;82;21100;-43
2021/07/07 03:23:01;;;;;;;9.90;7.60;;;;;;;24.64;64.41;99505.14;1725826;81;21594;-43
2021/07/07 03:25:28;;;;;;;10.70;7.58;;;;;;;24.65;64.35;99494.83;1741054;81;21108;-43
2021/07/07 03:27:56;;;;;;;9.30;7.53;;;;;;;24.66;64.24;99505.47;1726613;82;21140;-43
2021/07/07 03:30:25;;;;;;;7.78;6.95;;;;;;;24.66;64.27;99504.09;1745882;81;21009;-43
2021/07/07 03:32:55;;;;;;;10.58;7.50;;;;;;;24.65;64.28;99511.45;1723322;81;21558;-43
2021/07/07 03:35:21;;;;;;;;;;;;;;;24.67;64.26;99508.41;1743575;81;20977;-42
2021/07/07 03:37:48;;;;;;;10.80;7.45;;;;;;;24.70;64.19;99510.88;1748708;81;20132;-43
2021/07/07 03:40:17;;;;;;;11.40;8.23;;;;;;;24.60;64.43;99511.42;1739660;80;20985;-43
2021/07/07 03:42:44;;;;;;;10.38;8.08;;;;;;;24.62;64.38;99509.60;1756484;80;21013;-43
2021/07/07 03:45:18;;;;;;;10.88;8.15;;;;;;;24.61;64.38;99510.20;1759515;80;21093;-43
2021/07/07 03:47:45;;;;;;;13.98;7.47;;;;;;;24.61;64.51;99511.59;1760717;80;21441;-45
2021/07/07 03:50:12;;;;;;;8.43;7.08;;;;;;;24.61;64.55;99517.14;1755132;80;21052;-45
2021/07/07 03:52:39;;;;;;;12.47;8.28;;;;;;;24.67;64.49;99517.34;1765087;80;21145;-45
2021/07/07 03:55:14;;;;;;;15.18;9.00;;;;;;;24.74;64.40;99519.84;1770893;80;21591;-43
2021/07/07 03:57:41;;;;;;;8.95;7.80;;;;;;;24.79;64.01;99519.87;1750223;80;21095;-43
2021/07/07 04:00:14;;;;;;;9.53;8.03;;;;;;;24.84;63.93;99522.06;1748262;82;21033;-43
2021/07/07 04:02:41;;;;;;;11.70;7.37;;;;;;;24.86;63.90;99523.78;1748613;82;21015;-43
2021/07/07 04:05:10;;;;;;;9.98;7.22;;;;;;;24.85;63.66;99519.45;1749200;80;21129;-43
2021/07/07 04:07:37;;;;;;;8.63;6.53;;;;;;;24.86;63.64;99526.56;1748834;80;20933;-43
2021/07/07 04:10:06;;;;;;;10.53;7.62;;;;;;;24.90;62.94;99520.30;1748362;81;21538;-43
2021/07/07 04:12:38;;;;;;;7.95;7.15;;;;;;;24.93;62.95;99527.73;1756339;80;21758;-44
2021/07/07 04:15:06;;;;;;;10.38;7.58;;;;;;;24.94;62.93;99526.48;1754250;80;21013;-43
2021/07/07 04:17:33;;;;;;;9.43;6.87;;;;;;;24.93;62.96;99527.73;1761934;80;21096;-43
2021/07/07 04:20:00;;;;;;;9.75;7.30;;;;;;;24.93;62.64;99528.47;1756731;80;21084;-43
2021/07/07 04:22:27;;;;;;;8.58;6.70;;;;;;;24.94;62.64;99529.25;1760811;80;21010;-43
2021/07/07 04:24:53;;;;;;;7.35;6.25;;;;;;;24.96;62.63;99528.97;1779059;80;21084;-44
2021/07/07 04:27:20;;;;;;;8.83;6.40;;;;;;;25.04;62.37;99526.70;1762080;80;21037;-44
2021/07/07 04:29:46;;;;;;;7.55;6.25;;;;;;;25.13;62.12;99529.52;1770617;80;21961;-44
2021/07/07 04:32:16;;;;;;;8.60;6.53;;;;;;;25.20;62.17;99532.03;1756108;80;21014;-44
2021/07/07 04:34:41;;;;;;;7.40;5.85;;;;;;;25.26;60.45;99535.78;1709535;83;21000;-44
2021/07/07 04:37:08;;;;;;;10.60;7.47;;;;;;;25.24;59.57;99535.45;1780012;80;21037;-44
2021/07/07 04:39:34;;;;;;;24.77;9.00;;;;;;;25.24;58.53;99537.45;1778413;80;21526;-45
2021/07/07 04:42:01;;;;;;;12.15;7.05;;;;;;;25.22;58.72;99539.30;1771048;80;21144;-44
2021/07/07 04:44:28;;;;;;;10.40;5.75;;;;;;;25.22;59.06;99544.86;1764799;80;21023;-44
2021/07/07 04:46:54;;;;;;;9.65;6.30;;;;;;;25.21;57.51;99548.85;1772501;80;21900;-44
2021/07/07 04:49:21;;;;;;;7.35;5.62;;;;;;;25.15;57.25;99536.78;1763417;79;21000;-44
2021/07/07 04:51:49;;;;;;;7.97;5.85;;;;;;;25.14;57.28;99547.72;1759422;80;21554;-44
2021/07/07 04:54:16;;;;;;;8.45;5.55;;;;;;;25.15;56.71;99547.11;1750959;82;21148;-44
2021/07/07 04:56:44;;;;;;;9.13;5.22;;;;;;;25.17;56.97;99554.38;1751012;80;20937;-43
2021/07/07 04:59:11;;;;;;;7.95;4.97;;;;;;;25.18;56.83;99552.52;1762327;80;21008;-44
2021/07/07 05:01:39;;;;;;;5.05;4.30;;;;;;;25.21;55.65;99556.40;1760736;80;21014;-43
2021/07/07 05:04:06;;;;;;;10.60;4.25;;;;;;;25.21;54.72;99553.63;1763581;80;21505;-43
2021/07/07 05:06:33;;;;;;;6.03;4.12;;;;;;;25.23;53.72;99558.09;1749977;80;21128;-44
2021/07/07 05:09:00;;;;;;;6.67;4.40;;;;;;;25.27;53.08;99558.75;1750588;80;21035;-44
2021/07/07 05:11:27;;;;;;;4.75;4.12;;;;;;;25.27;52.75;99558.11;1769613;80;20996;-44
2021/07/07 05:13:53;;;;;;;9.05;4.45;;;;;;;25.27;52.81;99563.66;1754000;80;20994;-44
2021/07/07 05:16:20;;;;;;;4.87;3.75;;;;;;;25.27;53.45;99566.44;1755547;80;21583;-44
2021/07/07 05:18:47;;;;;;;4.53;3.85;;;;;;;25.30;52.75;99568.94;1753082;80;21152;-44
2021/07/07 05:21:14;;;;;;;5.20;3.80;;;;;;;25.32;52.10;99572.79;1768099;80;21099;-44
2021/07/07 05:23:40;;;;;;;6.47;3.70;;;;;;;25.34;51.08;99575.13;1752113;80;21534;-44
2021/07/07 05:26:07;;;;;;;4.72;3.22;;;;;;;25.36;50.64;99576.23;1755987;79;21023;-44
2021/07/07 05:28:34;;;;;;;5.00;3.25;;;;;;;25.36;49.82;99576.23;1760684;80;21040;-44
2021/07/07 05:31:05;;;;;;;3.08;2.77;;;;;;;25.40;49.37;99586.58;1760741;79;21374;-44
2021/07/07 05:33:36;;;;;;;5.40;2.90;;;;;;;25.43;48.87;99582.88;1763124;80;21099;-44
2021/07/07 05:36:04;;;;;;;4.90;3.10;;;;;;;25.48;48.24;99580.91;1773462;80;21052;-44
2021/07/07 05:38:31;;;;;;;3.12;2.75;;;;;;;25.53;48.46;99590.64;1729516;82;21057;-44
2021/07/07 05:40:57;;;;;;;3.52;2.60;;;;;;;25.57;48.39;99589.14;1752083;80;22084;-44
2021/07/07 05:43:24;;;;;;;3.50;2.60;;;;;;;25.61;47.89;99591.19;1748085;80;21110;-44
2021/07/07 05:45:50;;;;;;;5.45;2.90;;;;;;;25.66;48.08;99597.53;1742205;80;21547;-44
2021/07/07 05:48:17;;;;;;;7.30;2.92;;;;;;;25.72;47.39;99594.30;1768979;80;20973;-44
2021/07/07 05:50:57;;;;;;;6.47;3.17;;;;;;;25.77;47.58;99593.70;1752988;79;66088;31
2021/07/07 05:53:23;;;;;;;;;;;;;;;25.82;47.52;99598.05;1757077;80;21565;-45
2021/07/07 05:55:51;;;;;;;3.25;2.50;;;;;;;25.89;47.28;99602.56;1751347;80;21129;-45
2021/07/07 05:58:18;;;;;;;7.40;2.92;;;;;;;25.85;47.04;99601.94;1751346;80;21783;-45
2021/07/07 06:00:45;;;;;;;6.58;2.85;;;;;;;25.93;46.66;99603.97;1758163;80;20944;-45
2021/07/07 06:03:12;;;;;;;5.62;3.08;;;;;;;25.99;46.91;99605.53;1751943;80;21498;-45
2021/07/07 06:05:39;;;;;;;6.90;2.87;;;;;;;26.06;46.65;99608.02;1748372;80;21036;-45
2021/07/07 06:08:06;;;;;;;5.92;2.58;;;;;;;26.11;45.54;99606.02;1748020;80;21060;-44
2021/07/07 06:10:33;;;;;;;6.58;2.37;;;;;;;26.15;44.98;99602.48;1754348;80;21018;-45
2021/07/07 06:13:00;;;;;;;6.15;2.92;;;;;;;26.21;45.30;99611.80;1751322;80;21600;-45
2021/07/07 06:15:28;;;;;;;6.95;2.77;;;;;;;26.28;45.69;99612.91;1746092;80;20930;-45
2021/07/07 06:17:55;;;;;;;6.05;2.80;;;;;;;26.33;45.07;99607.35;1754842;80;21579;-45
2021/07/07 06:20:21;;;;;;;3.40;2.30;;;;;;;26.37;44.43;99611.53;1749432;80;21114;-45
2021/07/07 06:22:48;;;;;;;6.72;2.58;;;;;;;26.41;43.70;99614.77;1764324;80;21011;-45
2021/07/07 06:25:15;;;;;;;6.60;2.70;;;;;;;26.41;43.25;99615.55;1762917;80;21085;-45
2021/07/07 06:27:42;;;;;;;3.83;2.40;;;;;;;26.44;43.00;99618.00;1745448;80;21017;-44
2021/07/07 06:30:11;;;;;;;5.87;2.60;;;;;;;26.47;43.73;99616.48;1753950;81;21020;-44
2021/07/07 06:32:38;;;;;;;5.78;2.30;;;;;;;26.53;43.63;99625.00;1754863;80;22088;-44
2021/07/07 06:35:07;;;;;;;4.92;2.33;;;;;;;26.56;41.93;99622.67;1749983;80;21585;-44
2021/07/07 06:37:34;;;;;;;2.90;2.27;;;;;;;26.58;41.55;99625.13;1752629;80;21032;-44
2021/07/07 06:40:03;;;;;;;2.30;2.10;;;;;;;26.61;41.02;99630.41;1752963;80;21014;-44
2021/07/07 06:42:31;;;;;;;5.90;2.75;;;;;;;26.64;41.83;99636.42;1751019;80;26667;-44
2021/07/07 06:44:58;;;;;;;3.67;2.22;;;;;;;26.69;42.53;99635.20;1751155;80;21797;-44
2021/07/07 06:47:26;;;;;;;3.35;2.10;;;;;;;26.75;42.89;99629.80;1754811;80;21278;-44
2021/07/07 06:49:53;;;;;;;3.98;2.35;;;;;;;26.82;43.10;99635.81;1753402;81;21538;-44
2021/07/07 06:52:20;;;;;;;7.25;2.65;;;;;;;26.91;42.75;99634.31;1752911;80;21052;-44
2021/07/07 06:54:48;;;;;;;7.62;2.67;;;;;;;26.98;42.90;99639.56;1756163;80;21533;-44
2021/07/07 06:57:14;;;;;;;9.20;2.70;;;;;;;27.04;42.50;99637.09;1752759;80;21132;-44
2021/07/07 06:59:42;;;;;;;7.92;2.90;;;;;;;27.08;42.60;99637.70;1755688;80;20926;-44
2021/07/07 07:02:09;;;;;;;6.05;2.90;;;;;;;27.13;42.80;99638.47;1749956;80;20964;-44
2021/07/07 07:04:35;;;;;;;6.65;2.90;;;;;;;27.19;42.14;99638.62;1766276;80;21066;-44
2021/07/07 07:07:03;;;;;;;5.20;2.70;;;;;;;27.25;42.33;99640.30;1752893;81;21526;-43
2021/07/07 07:09:30;;;;;;;7.42;2.72;;;;;;;27.32;41.88;99644.02;1750910;81;21119;-44
2021/07/07 07:11:56;;;;;;;4.58;2.65;;;;;;;27.38;42.33;99642.93;1741773;80;21510;-44
2021/07/07 07:14:23;;;;;;;3.40;2.60;;;;;;;27.42;42.14;99649.11;1754800;80;21568;-44
2021/07/07 07:16:50;;;;;;;5.87;2.83;;;;;;;27.45;41.64;99639.80;1753893;81;20989;-44
2021/07/07 07:19:18;;;;;;;6.28;3.02;;;;;;;27.52;42.39;99638.13;1722729;82;21023;-44
2021/07/07 07:21:45;;;;;;;5.12;2.90;;;;;;;27.60;42.00;99644.13;1754409;81;21393;-44
2021/07/07 07:24:12;;;;;;;6.62;2.95;;;;;;;27.66;41.66;99640.88;1750686;80;21525;-44
2021/07/07 07:26:39;;;;;;;4.72;2.80;;;;;;;27.73;41.64;99640.55;1764752;80;21005;-44
2021/07/07 07:29:07;;;;;;;8.85;3.15;;;;;;;27.83;41.80;99644.08;1780383;80;21464;-44
2021/07/07 07:31:34;;;;;;;7.55;2.80;;;;;;;27.88;41.92;99644.22;1765331;80;21043;-44
2021/07/07 07:34:00;;;;;;;5.95;2.90;;;;;;;27.93;41.88;99646.34;1752656;80;21812;-44
2021/07/07 07:36:27;;;;;;;4.22;3.15;;;;;;;27.99;41.41;99643.06;1758353;80;21002;-44
2021/07/07 07:39:00;;;;;;;6.05;3.12;;;;;;;28.08;41.93;99637.45;1721674;82;21525;-44
2021/07/07 07:41:37;;;;;;;8.15;3.22;;;;;;;28.15;40.87;99638.38;1753852;80;21534;-43
2021/07/07 07:44:06;;;;;;;7.08;3.10;;;;;;;28.21;40.97;99636.50;1757536;80;21027;-44
2021/07/07 07:46:33;;;;;;;6.20;2.90;;;;;;;28.31;40.73;99644.97;1760873;80;21030;-44
2021/07/07 07:49:00;;;;;;;3.00;2.70;;;;;;;28.40;40.41;99640.11;1759433;80;20967;-44
2021/07/07 07:51:29;;;;;;;15.48;4.20;;;;;;;28.51;40.01;99639.58;1750155;80;20984;-43
2021/07/07 07:53:57;;;;;;;6.42;2.77;;;;;;;28.64;39.89;99648.47;1701397;83;21106;-44
2021/07/07 07:56:23;;;;;;;8.75;3.00;;;;;;;28.72;40.14;99643.32;1685927;85;21014;-44
2021/07/07 07:58:50;;;;;;;4.53;3.17;;;;;;;28.79;39.96;99642.97;1700471;83;21780;-44
2021/07/07 08:01:17;;;;;;;4.80;3.02;;;;;;;28.84;39.79;99650.06;1722636;82;21069;-44
2021/07/07 08:03:44;;;;;;;5.08;3.15;;;;;;;28.90;39.93;99655.77;1716938;82;21104;-44
2021/07/07 08:06:11;;;;;;;5.35;3.25;;;;;;;29.00;40.08;99643.89;1717816;83;20983;-44
2021/07/07 08:08:37;;;;;;;5.15;3.30;;;;;;;29.09;39.60;99648.00;1710744;83;21000;-44
2021/07/07 08:11:05;;;;;;;9.28;2.80;;;;;;;29.15;40.21;99656.61;1718803;82;21127;-44
2021/07/07 08:13:34;;;;;;;4.58;3.17;;;;;;;29.22;40.02;99652.69;1686895;84;21565;-44
2021/07/07 08:16:00;;;;;;;8.03;3.02;;;;;;;29.25;39.67;99653.88;1704618;83;21514;-44
2021/07/07 08:18:27;;;;;;;7.80;3.00;;;;;;;29.26;39.78;99660.24;1706943;83;21016;-44
2021/07/07 08:20:53;;;;;;;7.55;3.22;;;;;;;29.26;39.77;99658.84;1721245;82;21047;-44
2021/07/07 08:23:20;;;;;;;3.77;3.27;;;;;;;29.30;39.94;99659.42;1689119;83;22038;-44
2021/07/07 08:25:47;;;;;;;5.75;2.85;;;;;;;29.32;39.93;99663.95;1713351;82;20904;-44
2021/07/07 08:28:15;;;;;;;4.42;3.17;;;;;;;29.35;39.80;99651.80;1717233;82;21563;-44
2021/07/07 08:30:41;;;;;;;6.10;3.20;;;;;;;29.40;40.07;99658.11;1714799;83;21087;-44
2021/07/07 08:33:08;;;;;;;3.58;2.98;;;;;;;29.49;40.26;99658.02;1722125;82;21051;-44
2021/07/07 08:35:38;;;;;;;8.68;2.90;;;;;;;29.59;40.23;99657.30;1692187;84;21861;-44
2021/07/07 08:38:05;;;;;;;5.53;3.20;;;;;;;29.69;39.85;99653.16;1690918;84;21537;-44
2021/07/07 08:40:31;;;;;;;6.47;3.10;;;;;;;29.76;38.96;99654.95;1733477;82;20995;-44
2021/07/07 08:42:58;;;;;;;4.10;2.70;;;;;;;29.84;38.22;99655.94;1695352;83;21386;-44
2021/07/07 08:45:25;;;;;;;5.47;2.90;;;;;;;29.88;37.45;99649.52;1690990;83;21052;-44
2021/07/07 08:47:51;;;;;;;4.00;2.92;;;;;;;29.94;37.31;99650.41;1692518;83;21110;-44
2021/07/07 08:50:23;;;;;;;3.90;3.02;;;;;;;29.98;37.55;99657.97;1719314;82;21025;-44
2021/07/07 08:52:50;;;;;;;5.08;2.90;;;;;;;30.00;37.61;99659.66;1675762;84;21053;-44
2021/07/07 08:55:17;;;;;;;3.25;2.92;;;;;;;30.00;37.84;99662.45;1688409;85;21040;-44
2021/07/07 08:57:44;;;;;;;4.35;2.87;;;;;;;29.97;37.66;99661.38;1690836;84;21036;-43
2021/07/07 09:00:14;;;;;;;4.42;3.00;;;;;;;29.87;37.85;99658.52;1688242;83;21187;-44
2021/07/07 09:02:59;;;;;;;4.75;2.83;;;;;;;29.82;38.30;99666.84;1715186;83;21004;-43
2021/07/07 09:05:26;;;;;;;4.95;3.15;;;;;;;29.77;38.67;99671.09;1728313;82;20936;-44
2021/07/07 09:07:54;;;;;;;7.55;2.90;;;;;;;29.80;38.38;99665.30;1731683;82;21648;-44
2021/07/07 09:10:29;;;;;;;4.08;3.00;;;;;;;29.82;38.09;99663.42;1725977;82;21075;-44
2021/07/07 09:12:55;;;;;;;5.85;3.37;;;;;;;29.82;38.85;99665.45;1724031;83;21160;-44
2021/07/07 09:15:23;;;;;;;5.47;3.17;;;;;;;29.82;38.30;99673.83;1724228;83;21234;-44
2021/07/07 09:17:51;;;;;;;6.30;3.35;;;;;;;29.87;38.84;99673.16;1708453;84;21060;-44
2021/07/07 09:20:26;;;;;;;8.60;3.12;;;;;;;30.00;38.72;99670.84;1683184;84;21093;-44
2021/07/07 09:23:21;;;;;;;3.98;2.83;;;;;;;30.11;37.79;99668.23;1707677;84;21013;-44
2021/07/07 09:26:04;;;;;;;4.22;3.08;;;;;;;30.18;37.39;99672.00;1658475;86;21543;-44
2021/07/07 09:28:37;;;;;;;5.47;3.00;;;;;;;30.15;37.13;99677.18;1687117;83;21028;-44
2021/07/07 09:31:08;;;;;;;4.30;3.20;;;;;;;30.05;37.27;99679.32;1685195;84;20997;-44
2021/07/07 09:33:43;;;;;;;4.40;2.80;;;;;;;29.94;37.65;99684.73;1716752;82;20925;-44
2021/07/07 09:36:23;;;;;;;6.50;3.30;;;;;;;29.92;37.84;99690.02;1725821;83;21096;-44
2021/07/07 09:38:52;;;;;;;6.15;3.40;;;;;;;29.91;38.28;99690.52;1710957;82;21514;-44
2021/07/07 09:41:19;;;;;;;3.62;3.25;;;;;;;29.93;39.29;99694.98;1708260;82;20933;-44
2021/07/07 09:43:51;;;;;;;9.55;3.40;;;;;;;29.96;38.99;99698.23;1715577;83;20992;-44
2021/07/07 09:46:19;;;;;;;7.35;3.15;;;;;;;29.97;38.55;99699.75;1712696;83;21105;-44
2021/07/07 09:48:47;;;;;;;6.50;3.50;;;;;;;29.92;38.32;99699.80;1716451;83;21067;-44
2021/07/07 09:51:14;;;;;;;8.10;3.60;;;;;;;29.92;38.50;99704.00;1717527;83;22160;-44
2021/07/07 09:53:41;;;;;;;4.28;3.20;;;;;;;29.93;38.66;99704.15;1713465;83;20941;-44
2021/07/07 09:56:07;;;;;;;3.80;3.22;;;;;;;29.93;38.97;99705.55;1710989;83;21056;-44
2021/07/07 09:58:35;;;;;;;7.83;3.65;;;;;;;30.00;38.96;99707.97;1747819;80;20969;-44
2021/07/07 10:01:02;;;;;;;6.35;3.50;;;;;;;30.13;39.62;99711.84;1745944;80;21017;-44
2021/07/07 10:03:28;;;;;;;6.08;3.90;;;;;;;30.31;39.39;99703.84;1740429;81;21644;-44
2021/07/07 10:05:56;;;;;;;6.17;3.30;;;;;;;30.49;38.20;99714.22;1731089;81;20982;-44
2021/07/07 10:08:23;;;;;;;4.92;3.50;;;;;;;30.63;38.27;99714.02;1773195;80;20911;-44
2021/07/07 10:10:51;;;;;;;8.28;3.40;;;;;;;30.74;37.83;99712.77;1723917;82;21214;-44
2021/07/07 10:13:18;;;;;;;4.83;3.42;;;;;;;30.85;37.50;99720.53;1762196;81;21043;-44
2021/07/07 10:15:46;;;;;;;11.50;4.00;;;;;;;30.89;37.45;99714.86;1748831;80;21121;-44
2021/07/07 10:18:12;;;;;;;6.17;3.52;;;;;;;30.94;37.26;99714.16;1667420;84;21044;-44
2021/07/07 10:20:39;;;;;;;7.25;5.00;;;;;;;30.91;36.79;99719.34;1663386;85;21021;-45
2021/07/07 10:23:07;;;;;;;4.62;3.30;;;;;;;30.68;36.72;99696.53;1683079;83;21001;-44
2021/07/07 10:25:36;;;;;;;;;;;;;;;30.84;36.73;99734.41;1715598;83;21083;-44
2021/07/07 10:28:07;;;;;;;6.62;3.42;;;;;;;30.91;37.01;99729.15;1684855;84;21147;-44
2021/07/07 10:30:58;;;;;;;6.12;3.20;;;;;;;30.98;37.07;99724.52;1714809;82;21076;-44
2021/07/07 10:33:28;;;;;;;5.00;3.35;;;;;;;31.15;36.85;99723.36;1727998;82;21088;-44
2021/07/07 10:36:22;;;;;;;5.80;3.17;;;;;;;31.23;35.78;99721.66;1729223;82;21008;-44
2021/07/07 10:38:56;;;;;;;3.62;3.00;;;;;;;31.43;36.00;99725.06;1691340;82;21550;-44
2021/07/07 10:41:52;;;;;;;8.68;3.08;;;;;;;31.64;36.35;99727.22;1698373;84;21108;-44
2021/07/07 10:44:28;;;;;;;5.75;3.20;;;;;;;31.92;36.58;99721.23;1714894;82;21036;-45
2021/07/07 10:47:01;;;;;;;6.50;3.47;;;;;;;32.20;34.81;99729.26;1722883;82;20976;-44
2021/07/07 10:49:31;;;;;;;8.88;2.70;;;;;;;32.32;34.44;99730.12;1683342;84;21688;-44
2021/07/07 10:51:59;;;;;;;4.35;3.05;;;;;;;32.42;34.52;99729.29;1709467;83;21033;-44
2021/07/07 10:54:33;;;;;;;5.65;3.15;;;;;;;32.53;34.40;99732.17;1693755;83;21494;-44
2021/07/07 10:57:45;;;;;;;6.00;3.35;;;;;;;32.66;34.22;99727.69;1780084;79;22645;-44
2021/07/07 11:00:35;;;;;;;5.67;3.23;;;;;;;32.66;33.78;99738.91;1748457;80;21024;-45
2021/07/07 11:03:31;;;;;;;8.40;2.98;;;;;;;32.76;33.05;99730.42;1713280;82;21110;-45
2021/07/07 11:06:22;;;;;;;6.05;2.80;;;;;;;32.98;32.67;99735.36;1701797;83;20996;-45
2021/07/07 11:08:51;;;;;;;4.00;2.87;;;;;;;33.28;32.69;99728.73;1691974;83;21642;-44
2021/07/07 11:11:24;;;;;;;4.35;2.87;;;;;;;33.46;31.93;99727.49;1693099;83;21032;-45
2021/07/07 11:13:53;;;;;;;4.12;2.83;;;;;;;33.72;31.44;99731.54;1705296;82;21014;-44
2021/07/07 11:16:23;;;;;;;4.97;2.70;;;;;;;33.74;31.48;99739.61;1711902;82;21736;-45
2021/07/07 11:18:50;;;;;;;4.42;2.67;;;;;;;33.72;31.38;99735.75;1717414;82;22114;-44
2021/07/07 11:21:18;;;;;;;6.92;3.02;;;;;;;33.78;30.91;99734.50;1715455;81;21024;-45
2021/07/07 11:23:45;;;;;;;3.98;2.67;;;;;;;33.89;31.06;99733.08;1729264;81;21024;-44
2021/07/07 11:26:12;;;;;;;4.10;2.37;;;;;;;34.12;30.92;99735.91;1720835;81;21072;-44
2021/07/07 11:28:41;;;;;;;28.42;4.22;;;;;;;34.43;30.93;99729.36;1706555;81;21101;-45
2021/07/07 11:31:07;;;;;;;23.20;3.43;;;;;;;34.77;31.05;99733.53;1694728;84;21080;-45
2021/07/07 11:33:34;;;;;;;7.92;3.10;;;;;;;35.05;30.40;99736.27;1717117;81;21478;-45
2021/07/07 11:36:01;;;;;;;16.95;3.55;;;;;;;35.29;29.55;99729.39;1720739;81;21536;-45
2021/07/07 11:38:29;;;;;;;7.10;2.92;;;;;;;35.51;29.50;99728.47;1718177;81;21049;-45
2021/07/07 11:40:56;;;;;;;7.45;2.85;;;;;;;35.77;29.15;99725.26;1730592;81;21118;-45